createdAt,value
2018-06-15T00:00:28.022Z,17.77
2018-06-15T00:03:01.445Z,16.60
2018-06-15T00:05:29.828Z,16.80
2018-06-15T00:07:58.245Z,18.73
2018-06-15T00:10:26.743Z,20.23
2018-06-15T00:12:55.146Z,17.93
2018-06-15T00:15:24.177Z,19.57
2018-06-15T00:17:52.567Z,18.20
2018-06-15T00:20:21.023Z,18.83
2018-06-15T00:22:49.397Z,19.10
2018-06-15T00:25:17.855Z,19.60
2018-06-15T00:27:46.229Z,18.47
2018-06-15T00:30:14.591Z,17.40
2018-06-15T00:32:43.162Z,19.30
2018-06-15T00:35:11.568Z,20.13
2018-06-15T00:37:39.945Z,21.13
2018-06-15T00:40:08.338Z,21.63
2018-06-15T00:42:36.696Z,20.67
2018-06-15T00:45:05.065Z,21.83
2018-06-15T00:47:33.431Z,25.40
2018-06-15T00:50:01.566Z,24.90
2018-06-15T00:52:30.022Z,25.10
2018-06-15T00:54:58.432Z,23.87
2018-06-15T00:57:38.271Z,21.97
2018-06-15T01:00:06.646Z,22.03
2018-06-15T01:02:35.023Z,23.53
2018-06-15T01:05:03.472Z,25.17
2018-06-15T01:07:31.922Z,22.50
2018-06-15T01:10:00.331Z,25.13
2018-06-15T01:12:28.795Z,25.37
2018-06-15T01:14:57.156Z,27.63
2018-06-15T01:17:25.631Z,26.00
2018-06-15T01:19:54.783Z,28.97
2018-06-15T01:22:23.280Z,26.40
2018-06-15T01:24:51.732Z,26.80
2018-06-15T01:27:20.123Z,26.43
2018-06-15T01:29:48.485Z,28.00
2018-06-15T01:32:16.875Z,25.40
2018-06-15T01:34:45.291Z,26.70
2018-06-15T01:37:13.676Z,23.93
2018-06-15T01:39:42.027Z,25.57
2018-06-15T01:42:10.474Z,24.90
2018-06-15T01:44:38.962Z,23.23
2018-06-15T01:47:07.384Z,24.60
2018-06-15T01:49:36.350Z,25.93
2018-06-15T01:52:04.775Z,27.63
2018-06-15T01:54:33.150Z,27.10
2018-06-15T01:57:01.526Z,23.87
2018-06-15T01:59:30.044Z,27.20
2018-06-15T02:01:58.484Z,26.50
2018-06-15T02:04:26.878Z,27.67
2018-06-15T02:06:55.392Z,27.07
2018-06-15T02:09:23.813Z,27.27
2018-06-15T02:11:52.186Z,27.90
2018-06-15T02:14:20.684Z,27.20
2018-06-15T02:16:49.144Z,27.43
2018-06-15T02:19:17.567Z,29.37
2018-06-15T02:21:45.950Z,28.70
2018-06-15T02:24:14.397Z,29.93
2018-06-15T02:26:42.794Z,28.17
2018-06-15T02:29:11.194Z,29.20
2018-06-15T02:31:39.667Z,28.07
2018-06-15T02:34:08.050Z,25.67
2018-06-15T02:36:36.423Z,25.73
2018-06-15T02:39:07.542Z,27.13
2018-06-15T02:41:35.929Z,26.20
2018-06-15T02:44:05.210Z,26.63
2018-06-15T02:46:33.615Z,28.53
2018-06-15T02:49:02.066Z,28.70
2018-06-15T02:51:30.479Z,27.87
2018-06-15T02:53:58.836Z,28.97
2018-06-15T02:56:27.281Z,27.53
2018-06-15T02:58:55.698Z,26.30
2018-06-15T03:01:24.099Z,28.43
2018-06-15T03:03:52.687Z,27.13
2018-06-15T03:06:21.060Z,26.60
2018-06-15T03:08:50.337Z,28.13
2018-06-15T03:11:18.730Z,25.83
2018-06-15T03:13:47.161Z,26.00
2018-06-15T03:16:15.623Z,26.33
2018-06-15T03:18:43.971Z,25.67
2018-06-15T03:21:12.391Z,28.77
2018-06-15T03:23:40.862Z,27.87
2018-06-15T03:26:09.258Z,28.00
2018-06-15T03:28:37.627Z,26.77
2018-06-15T03:31:06.198Z,26.77
2018-06-15T03:33:34.559Z,28.47
2018-06-15T03:36:02.657Z,26.77
2018-06-15T03:38:31.041Z,26.10
2018-06-15T03:40:59.484Z,25.43
2018-06-15T03:43:27.897Z,26.60
2018-06-15T03:45:56.271Z,26.10
2018-06-15T03:48:24.644Z,26.60
2018-06-15T03:50:53.009Z,25.37
2018-06-15T03:53:21.587Z,25.40
2018-06-15T03:55:50.021Z,25.30
2018-06-15T03:58:18.394Z,25.80
2018-06-15T04:00:46.792Z,25.30
2018-06-15T04:03:15.185Z,23.47
2018-06-15T04:05:43.600Z,25.00
2018-06-15T04:08:11.976Z,24.90
2018-06-15T04:10:40.371Z,23.73
2018-06-15T04:13:08.868Z,23.40
2018-06-15T04:15:37.237Z,24.03
2018-06-15T04:18:08.931Z,24.37
2018-06-15T04:20:38.604Z,24.70
2018-06-15T04:23:07.321Z,25.00
2018-06-15T04:25:35.744Z,24.93
2018-06-15T04:28:04.163Z,23.93
2018-06-15T04:30:32.573Z,23.67
2018-06-15T04:33:01.874Z,23.70
2018-06-15T04:35:30.272Z,23.33
2018-06-15T04:37:58.705Z,25.17
2018-06-15T04:40:27.419Z,25.50
2018-06-15T04:42:55.835Z,23.90
2018-06-15T04:45:24.041Z,20.90
2018-06-15T04:47:52.467Z,23.70
2018-06-15T04:50:20.902Z,22.30
2018-06-15T04:52:49.274Z,21.50
2018-06-15T04:55:18.289Z,23.47
2018-06-15T04:57:46.727Z,22.87
2018-06-15T05:00:15.070Z,22.17
2018-06-15T05:02:43.486Z,20.50
2018-06-15T05:05:11.863Z,21.80
2018-06-15T05:07:40.277Z,21.53
2018-06-15T05:10:08.687Z,23.70
2018-06-15T05:12:37.208Z,21.33
2018-06-15T05:15:05.633Z,21.03
2018-06-15T05:17:34.060Z,20.30
2018-06-15T05:20:02.461Z,22.37
2018-06-15T05:22:30.918Z,22.40
2018-06-15T05:24:59.266Z,22.53
2018-06-15T05:27:27.721Z,21.40
2018-06-15T05:29:56.100Z,20.33
2018-06-15T05:32:24.502Z,20.23
2018-06-15T05:34:52.861Z,19.93
2018-06-15T05:37:21.323Z,20.63
2018-06-15T05:39:49.745Z,20.50
2018-06-15T05:42:18.135Z,21.17
2018-06-15T05:44:46.515Z,20.20
2018-06-15T05:47:14.880Z,19.90
2018-06-15T05:49:43.597Z,19.43
2018-06-15T05:52:12.045Z,21.97
2018-06-15T05:54:40.541Z,19.40
2018-06-15T05:57:08.915Z,19.80
2018-06-15T05:59:37.290Z,19.83
2018-06-15T06:02:05.727Z,18.13
2018-06-15T06:04:34.094Z,20.03
2018-06-15T06:07:02.494Z,17.73
2018-06-15T06:09:30.894Z,43.30
2018-06-15T06:11:59.289Z,15.60
2018-06-15T06:14:27.667Z,18.07
2018-06-15T06:16:56.085Z,17.17
2018-06-15T06:19:24.443Z,17.30
2018-06-15T06:21:52.805Z,15.77
2018-06-15T06:24:21.153Z,15.80
2018-06-15T06:26:49.557Z,18.70
2018-06-15T06:29:17.975Z,16.47
2018-06-15T06:31:46.373Z,16.07
2018-06-15T06:34:14.739Z,18.23
2018-06-15T06:36:43.143Z,16.70
2018-06-15T06:39:12.581Z,16.67
2018-06-15T06:41:40.945Z,16.10
2018-06-15T06:44:09.943Z,16.50
2018-06-15T06:46:38.323Z,15.23
2018-06-15T06:49:06.731Z,17.77
2018-06-15T06:51:35.112Z,16.30
2018-06-15T06:54:03.453Z,17.47
2018-06-15T06:56:31.815Z,15.07
2018-06-15T06:59:00.182Z,16.93
2018-06-15T07:01:28.538Z,16.70
2018-06-15T07:03:56.993Z,19.30
2018-06-15T07:06:25.385Z,19.07
2018-06-15T07:08:53.822Z,17.87
2018-06-15T07:11:22.185Z,18.47
2018-06-15T07:13:50.540Z,21.07
2018-06-15T07:16:18.967Z,19.63
2018-06-15T07:18:47.332Z,18.43
2018-06-15T07:21:15.684Z,18.10
2018-06-15T07:23:44.101Z,18.97
2018-06-15T07:26:12.461Z,21.50
2018-06-15T07:28:40.820Z,19.77
2018-06-15T07:31:09.197Z,19.07
2018-06-15T07:33:37.926Z,18.70
2018-06-15T07:36:06.330Z,18.77
2018-06-15T07:38:34.678Z,21.13
2018-06-15T07:41:03.076Z,21.97
2018-06-15T07:43:31.442Z,22.50
2018-06-15T07:45:59.937Z,20.97
2018-06-15T07:48:28.293Z,21.77
2018-06-15T07:50:56.649Z,19.50
2018-06-15T07:53:25.182Z,20.50
2018-06-15T07:55:53.581Z,21.90
2018-06-15T07:58:21.975Z,22.43
2018-06-15T08:00:50.377Z,22.27
2018-06-15T08:03:18.763Z,17.70
2018-06-15T08:05:46.860Z,18.00
2018-06-15T08:08:15.233Z,23.50
2018-06-15T08:10:43.628Z,25.07
2018-06-15T08:13:12.017Z,26.13
2018-06-15T08:15:40.465Z,44.50
2018-06-15T08:18:08.564Z,28.00
2018-06-15T08:20:37.020Z,69.03
2018-06-15T08:23:05.514Z,241.73
2018-06-15T08:25:33.891Z,145.73
2018-06-15T08:28:02.245Z,233.43
2018-06-15T08:30:30.595Z,145.83
2018-06-15T08:32:58.997Z,26.37
2018-06-15T08:35:27.389Z,71.77
2018-06-15T08:37:55.849Z,79.87
2018-06-15T08:40:24.237Z,25.00
2018-06-15T08:42:52.645Z,27.10
2018-06-15T08:45:21.006Z,79.87
2018-06-15T08:47:49.452Z,137.57
2018-06-15T08:50:17.847Z,111.27
2018-06-15T08:52:45.996Z,126.60
2018-06-15T08:55:14.314Z,70.70
2018-06-15T08:57:43.015Z,106.07
2018-06-15T09:00:11.468Z,20.30
2018-06-15T09:02:39.944Z,20.47
2018-06-15T09:05:08.353Z,36.30
2018-06-15T09:07:36.825Z,116.07
2018-06-15T09:10:05.211Z,102.20
2018-06-15T09:12:33.322Z,92.87
2018-06-15T09:15:01.705Z,196.47
2018-06-15T09:17:30.078Z,192.43
2018-06-15T09:19:58.425Z,160.33
2018-06-15T09:22:26.803Z,248.00
2018-06-15T09:24:55.176Z,212.07
2018-06-15T09:27:24.006Z,170.80
2018-06-15T09:29:52.541Z,134.43
2018-06-15T09:32:20.907Z,127.97
2018-06-15T09:34:49.293Z,106.67
2018-06-15T09:37:17.757Z,72.97
2018-06-15T09:39:46.141Z,68.67
2018-06-15T09:42:14.512Z,21.27
2018-06-15T09:44:42.888Z,92.47
2018-06-15T09:47:11.298Z,103.50
2018-06-15T09:49:39.646Z,69.93
2018-06-15T09:52:07.721Z,85.93
2018-06-15T09:54:35.787Z,113.33
2018-06-15T09:57:04.169Z,43.40
2018-06-15T09:59:32.570Z,65.77
2018-06-15T10:02:00.942Z,27.33
2018-06-15T10:04:29.323Z,107.57
2018-06-15T10:06:57.404Z,82.77
2018-06-15T10:09:25.781Z,108.60
2018-06-15T10:11:54.222Z,136.70
2018-06-15T10:14:22.595Z,163.30
2018-06-15T10:16:51.020Z,150.63
2018-06-15T10:19:19.387Z,229.20
2018-06-15T10:21:47.796Z,235.23
2018-06-15T10:24:16.207Z,180.80
2018-06-15T10:26:44.855Z,210.63
2018-06-15T10:29:13.305Z,94.23
2018-06-15T10:31:41.711Z,281.97
2018-06-15T10:34:10.137Z,93.00
2018-06-15T10:36:38.607Z,246.37
2018-06-15T10:39:08.501Z,126.33
2018-06-15T10:41:36.914Z,325.97
2018-06-15T10:44:05.334Z,613.17
2018-06-15T10:46:33.719Z,530.73
2018-06-15T10:49:08.813Z,799.33
2018-06-15T10:51:36.921Z,977.87
2018-06-15T10:54:05.314Z,940.17
2018-06-15T10:56:34.527Z,999.90
2018-06-15T10:59:02.913Z,999.90
2018-06-15T11:01:31.479Z,999.90
2018-06-15T11:03:59.824Z,999.90
2018-06-15T11:06:28.298Z,189.13
2018-06-15T11:08:56.713Z,193.33
2018-06-15T11:11:25.070Z,999.90
2018-06-15T11:13:53.503Z,877.60
2018-06-15T11:16:21.895Z,999.90
2018-06-15T11:18:50.243Z,999.90
2018-06-15T11:21:18.627Z,999.90
2018-06-15T11:23:47.043Z,24.27
2018-06-15T11:26:15.433Z,12.00
2018-06-15T11:28:43.794Z,15.40
2018-06-15T11:31:12.211Z,13.57
2018-06-15T11:33:40.956Z,32.73
2018-06-15T11:36:09.321Z,17.50
2018-06-15T11:38:37.677Z,14.70
2018-06-15T11:41:06.100Z,13.67
2018-06-15T11:43:34.425Z,16.13
2018-06-15T11:46:02.765Z,15.77
2018-06-15T11:48:30.832Z,15.27
2018-06-15T11:50:59.185Z,13.50
2018-06-15T11:53:28.531Z,14.70
2018-06-15T11:55:56.895Z,14.30
2018-06-15T11:58:25.280Z,14.13
2018-06-15T12:00:53.606Z,16.47
2018-06-15T12:03:21.965Z,24.40
2018-06-15T12:05:50.033Z,105.67
2018-06-15T12:08:18.461Z,163.10
2018-06-15T12:10:46.927Z,13.93
2018-06-15T12:13:15.311Z,999.90
2018-06-15T12:15:43.683Z,13.90
2018-06-15T12:18:12.045Z,17.27
2018-06-15T12:20:40.465Z,14.87
2018-06-15T12:23:08.877Z,14.53
2018-06-15T12:25:37.271Z,16.73
2018-06-15T12:28:05.641Z,42.63
2018-06-15T12:30:34.072Z,862.97
2018-06-15T12:33:02.442Z,999.90
2018-06-15T12:35:30.799Z,999.90
2018-06-15T12:37:59.271Z,999.90
2018-06-15T12:40:27.688Z,999.90
2018-06-15T12:42:56.038Z,999.90
2018-06-15T12:45:24.516Z,999.90
2018-06-15T12:47:52.915Z,978.03
2018-06-15T12:50:21.299Z,388.97
2018-06-15T12:52:49.681Z,999.90
2018-06-15T12:55:18.051Z,999.90
2018-06-15T12:57:46.440Z,999.90
2018-06-15T13:00:14.799Z,999.90
2018-06-15T13:02:43.257Z,999.90
2018-06-15T13:05:11.606Z,228.80
2018-06-15T13:07:40.188Z,243.87
2018-06-15T13:10:08.559Z,181.93
2018-06-15T13:12:36.930Z,295.20
2018-06-15T13:15:05.381Z,497.10
2018-06-15T13:17:33.785Z,999.90
2018-06-15T13:20:02.157Z,999.90
2018-06-15T13:22:30.658Z,999.90
2018-06-15T13:24:59.051Z,957.83
2018-06-15T13:27:27.439Z,999.90
2018-06-15T13:29:55.890Z,999.90
2018-06-15T13:32:24.336Z,999.90
2018-06-15T13:34:52.920Z,999.90
2018-06-15T13:37:21.298Z,999.90
2018-06-15T13:39:49.656Z,999.90
2018-06-15T13:42:18.023Z,999.90
2018-06-15T13:44:46.469Z,999.90
2018-06-15T13:47:14.810Z,999.90
2018-06-15T13:49:43.169Z,999.90
2018-06-15T13:52:11.557Z,999.90
2018-06-15T13:54:39.949Z,999.90
2018-06-15T13:57:08.323Z,999.90
2018-06-15T13:59:36.776Z,999.90
2018-06-15T14:02:05.672Z,999.90
2018-06-15T14:04:34.088Z,999.90
2018-06-15T14:07:02.584Z,999.90
2018-06-15T14:09:30.953Z,999.90
2018-06-15T14:11:59.400Z,999.90
2018-06-15T14:14:27.768Z,999.90
2018-06-15T14:16:56.166Z,999.90
2018-06-15T14:19:24.506Z,999.90
2018-06-15T14:21:53.087Z,999.90
2018-06-15T14:24:21.484Z,999.90
2018-06-15T14:26:49.878Z,999.90
2018-06-15T14:29:18.238Z,999.90
2018-06-15T14:31:46.607Z,999.90
2018-06-15T14:34:14.982Z,999.90
2018-06-15T14:36:43.348Z,999.90
2018-06-15T14:39:11.830Z,999.90
2018-06-15T14:41:40.392Z,999.90
2018-06-15T14:44:08.844Z,999.90
2018-06-15T14:46:37.212Z,999.90
2018-06-15T14:49:05.702Z,999.90
2018-06-15T14:51:34.071Z,999.90
2018-06-15T14:54:02.451Z,999.90
2018-06-15T14:56:30.865Z,999.90
2018-06-15T14:58:59.241Z,999.90
2018-06-15T15:01:27.603Z,999.90
2018-06-15T15:03:56.087Z,999.90
2018-06-15T15:06:25.072Z,999.90
2018-06-15T15:08:53.476Z,999.90
2018-06-15T15:11:21.855Z,999.90
2018-06-15T15:13:50.224Z,999.90
2018-06-15T15:16:18.338Z,999.90
2018-06-15T15:18:46.723Z,13.53
2018-06-15T15:21:15.075Z,999.90
2018-06-15T15:23:43.480Z,999.90
2018-06-15T15:26:11.999Z,13.60
2018-06-15T15:28:40.461Z,999.90
2018-06-15T15:31:08.829Z,998.23
2018-06-15T15:33:37.198Z,999.90
2018-06-15T15:36:05.691Z,985.20
2018-06-15T15:38:34.049Z,11.13
2018-06-15T15:41:02.409Z,12.70
2018-06-15T15:43:30.750Z,66.87
2018-06-15T15:45:59.226Z,696.43
2018-06-15T15:48:27.597Z,689.20
2018-06-15T15:50:55.954Z,830.90
2018-06-15T15:53:24.468Z,784.00
2018-06-15T15:55:52.839Z,815.93
2018-06-15T15:58:21.614Z,749.20
2018-06-15T16:00:50.023Z,717.33
2018-06-15T16:03:18.408Z,712.37
2018-06-15T16:05:46.781Z,647.60
2018-06-15T16:08:15.148Z,9.50
2018-06-15T16:10:43.556Z,518.43
2018-06-15T16:13:11.991Z,591.93
2018-06-15T16:15:40.367Z,562.53
2018-06-15T16:18:08.765Z,999.90
2018-06-15T16:20:37.131Z,999.90
2018-06-15T16:23:05.690Z,999.90
2018-06-15T16:25:34.056Z,999.90
2018-06-15T16:28:02.441Z,999.90
2018-06-15T16:30:30.796Z,999.90
2018-06-15T16:32:59.204Z,999.90
2018-06-15T16:35:27.606Z,999.90
2018-06-15T16:37:56.291Z,999.90
2018-06-15T16:40:24.712Z,999.90
2018-06-15T16:42:53.106Z,999.90
2018-06-15T16:45:21.484Z,999.90
2018-06-15T16:47:49.950Z,999.90
2018-06-15T16:50:18.324Z,999.90
2018-06-15T16:52:47.370Z,999.90
2018-06-15T16:55:15.797Z,999.90
2018-06-15T16:57:44.898Z,999.90
2018-06-15T17:00:13.308Z,999.90
2018-06-15T17:02:41.713Z,999.90
2018-06-15T17:05:10.435Z,999.90
2018-06-15T17:07:38.852Z,999.90
2018-06-15T17:10:07.218Z,999.90
2018-06-15T17:12:35.607Z,999.90
2018-06-15T17:15:03.972Z,999.90
2018-06-15T17:17:32.369Z,999.90
2018-06-15T17:20:00.859Z,999.90
2018-06-15T17:22:29.684Z,999.90
2018-06-15T17:24:58.072Z,999.90
2018-06-15T17:27:26.463Z,999.90
2018-06-15T17:29:54.870Z,999.90
2018-06-15T17:32:23.304Z,999.90
2018-06-15T17:34:51.656Z,999.90
2018-06-15T17:37:20.033Z,999.90
2018-06-15T17:39:48.418Z,999.90
2018-06-15T17:42:16.814Z,999.90
2018-06-15T17:44:45.276Z,999.90
2018-06-15T17:47:13.697Z,999.90
2018-06-15T17:49:42.069Z,999.90
2018-06-15T17:52:10.532Z,999.90
2018-06-15T17:54:38.908Z,999.90
2018-06-15T17:57:07.271Z,999.90
2018-06-15T17:59:35.729Z,998.57
2018-06-15T18:02:04.091Z,997.47
2018-06-15T18:04:32.465Z,998.63
2018-06-15T18:07:00.857Z,387.67
2018-06-15T18:09:29.221Z,394.87
2018-06-15T18:11:57.615Z,359.97
2018-06-15T18:14:26.088Z,459.37
2018-06-15T18:16:54.467Z,381.30
2018-06-15T18:19:22.857Z,370.10
2018-06-15T18:21:51.258Z,353.50
2018-06-15T18:24:19.585Z,343.53
2018-06-15T18:26:47.950Z,138.93
2018-06-15T18:29:16.310Z,181.40
2018-06-15T18:31:44.772Z,320.10
2018-06-15T18:34:13.146Z,316.10
2018-06-15T18:36:41.640Z,822.83
2018-06-15T18:39:12.660Z,839.43
2018-06-15T18:41:41.012Z,834.47
2018-06-15T18:44:09.630Z,143.37
2018-06-15T18:46:38.170Z,13.07
2018-06-15T18:49:06.622Z,10.90
2018-06-15T18:51:35.367Z,9.93
2018-06-15T18:54:03.888Z,149.83
2018-06-15T18:56:32.316Z,237.67
2018-06-15T18:59:00.680Z,382.00
2018-06-15T19:01:29.099Z,366.07
2018-06-15T19:03:57.537Z,275.20
2018-06-15T19:06:25.997Z,338.63
2018-06-15T19:08:54.385Z,229.53
2018-06-15T19:11:22.768Z,282.43
2018-06-15T19:13:51.346Z,239.93
2018-06-15T19:16:19.740Z,278.23
2018-06-15T19:18:48.133Z,356.07
2018-06-15T19:21:16.540Z,412.50
2018-06-15T19:23:44.944Z,441.53
2018-06-15T19:28:47.955Z,468.63
2018-06-15T19:31:16.415Z,359.40
2018-06-15T19:33:44.836Z,399.03
2018-06-15T19:36:13.209Z,252.47
2018-06-15T19:38:41.598Z,325.00
2018-06-15T19:41:09.957Z,400.13
2018-06-15T19:43:38.333Z,342.50
2018-06-15T19:46:06.694Z,394.30
2018-06-15T19:48:35.201Z,391.50
2018-06-15T19:51:03.688Z,325.07
2018-06-15T19:53:32.073Z,262.50
2018-06-15T19:56:00.474Z,351.03
2018-06-15T19:58:28.813Z,327.07
2018-06-15T20:00:56.886Z,281.87
2018-06-15T20:03:25.276Z,310.83
2018-06-15T20:05:53.681Z,394.20
2018-06-15T20:08:22.043Z,367.60
2018-06-15T20:10:50.556Z,466.27
2018-06-15T20:13:18.976Z,554.60
2018-06-15T20:15:47.417Z,586.03
2018-06-15T20:18:15.813Z,443.10
2018-06-15T20:20:44.163Z,649.57
2018-06-15T20:23:12.524Z,608.93
2018-06-15T20:25:40.895Z,660.00
2018-06-15T20:28:09.264Z,640.10
2018-06-15T20:30:37.629Z,634.00
2018-06-15T20:33:06.059Z,646.40
2018-06-15T20:35:34.435Z,655.03
2018-06-15T20:38:02.810Z,647.17
2018-06-15T20:40:31.196Z,663.13
2018-06-15T20:42:59.737Z,625.23
2018-06-15T20:45:28.123Z,572.27
2018-06-15T20:47:56.512Z,355.50
2018-06-15T20:50:24.897Z,252.43
2018-06-15T20:52:53.267Z,226.27
2018-06-15T20:55:21.640Z,305.40
2018-06-15T20:57:50.115Z,257.53
2018-06-15T21:00:18.485Z,261.00
2018-06-15T21:02:46.909Z,282.40
2018-06-15T21:05:15.439Z,280.67
2018-06-15T21:07:43.836Z,216.97
2018-06-15T21:10:12.177Z,213.10
2018-06-15T21:12:40.533Z,231.97
2018-06-15T21:15:08.925Z,153.47
2018-06-15T21:17:37.306Z,192.80
2018-06-15T21:20:05.777Z,165.87
2018-06-15T21:22:34.153Z,145.87
2018-06-15T21:25:02.598Z,220.40
2018-06-15T21:27:30.993Z,130.53
2018-06-15T21:29:59.370Z,112.77
2018-06-15T21:32:27.729Z,105.43
2018-06-15T21:34:56.141Z,75.07
2018-06-15T21:37:24.509Z,57.03
2018-06-15T21:39:52.897Z,49.93
2018-06-15T21:42:21.219Z,43.93
2018-06-15T21:44:49.597Z,33.97
2018-06-15T21:47:17.953Z,29.13
2018-06-15T21:49:46.341Z,29.17
2018-06-15T21:52:14.739Z,35.73
2018-06-15T21:54:43.090Z,40.30
2018-06-15T21:57:11.430Z,40.27
2018-06-15T21:59:39.795Z,68.97
2018-06-15T22:02:08.235Z,58.33
2018-06-15T22:04:36.594Z,96.97
2018-06-15T22:07:04.983Z,60.60
2018-06-15T22:09:33.326Z,63.53
2018-06-15T22:12:01.719Z,56.70
2018-06-15T22:14:30.122Z,46.33
2018-06-15T22:16:58.485Z,62.10
2018-06-15T22:19:26.958Z,59.53
2018-06-15T22:21:55.370Z,113.53
2018-06-15T22:24:24.106Z,147.23
2018-06-15T22:26:52.566Z,190.87
2018-06-15T22:29:20.936Z,14.53
2018-06-15T22:31:49.549Z,13.70
2018-06-15T22:34:17.973Z,13.40
2018-06-15T22:36:46.351Z,15.17
2018-06-15T22:39:15.892Z,13.90
2018-06-15T22:41:44.355Z,13.70
2018-06-15T22:44:13.303Z,13.40
2018-06-15T22:46:42.530Z,14.40
2018-06-15T22:49:11.806Z,13.70
2018-06-15T22:51:40.944Z,13.30
2018-06-15T22:54:09.380Z,13.53
2018-06-15T22:56:37.810Z,13.60
2018-06-15T22:59:06.198Z,13.27
2018-06-15T23:01:34.565Z,13.77
2018-06-15T23:04:02.957Z,14.50
2018-06-15T23:06:31.325Z,16.13
2018-06-15T23:08:59.696Z,13.13
2018-06-15T23:11:28.072Z,17.10
2018-06-15T23:13:56.454Z,15.43
2018-06-15T23:16:24.850Z,22.77
2018-06-15T23:18:53.262Z,15.50
2018-06-15T23:21:21.601Z,36.50
2018-06-15T23:23:50.017Z,204.67
2018-06-15T23:26:18.388Z,16.27
2018-06-15T23:28:46.736Z,15.40
2018-06-15T23:31:15.087Z,14.30
2018-06-15T23:33:43.482Z,14.90
2018-06-15T23:36:11.891Z,14.03
2018-06-15T23:38:40.245Z,14.50
2018-06-15T23:41:08.629Z,14.60
2018-06-15T23:43:37.096Z,15.37
2018-06-15T23:46:05.515Z,15.00
2018-06-15T23:48:33.878Z,15.67
2018-06-15T23:51:02.340Z,15.10
2018-06-15T23:53:30.697Z,13.63
2018-06-15T23:55:59.080Z,14.70
2018-06-15T23:58:27.455Z,14.10
